Time;durP1;ratioP1;P1;durP2;ratioP2;P2;SDS_P1;SDS_P2;PMS_P1;PMS_P2;Temp;Humidity;BMP_temperature;BMP_pressure;BME280_temperature;BME280_humidity;BME280_pressure;Samples;Min_cycle;Max_cycle;Signal;HPM_P1;HPM_P2
2023/07/08 00:02:17;;;;;;;6.67;4.77;;;15.50;99.90;;;;;;4936927;29;20220;-75
2023/07/08 00:04:45;;;;;;;6.83;5.10;;;15.50;99.90;;;;;;4948681;28;20554;-76
2023/07/08 00:07:17;;;;;;;9.47;5.17;;;15.50;99.90;;;;;;4977887;28;20227;-74
2023/07/08 00:09:45;;;;;;;8.93;5.07;;;15.50;99.90;;;;;;4976760;28;20215;-77
2023/07/08 00:12:14;;;;;;;7.00;4.70;;;15.40;99.90;;;;;;4948026;28;20263;-75
2023/07/08 00:14:42;;;;;;;7.07;4.80;;;15.40;99.90;;;;;;4936339;29;20208;-76
2023/07/08 00:17:13;;;;;;;6.00;4.70;;;15.40;99.90;;;;;;4935972;29;20223;-76
2023/07/08 00:19:41;;;;;;;5.67;4.53;;;15.50;99.90;;;;;;4936570;29;20243;-75
2023/07/08 00:22:13;;;;;;;7.93;4.90;;;15.50;99.90;;;;;;4935866;29;20208;-74
2023/07/08 00:24:42;;;;;;;5.70;4.50;;;15.50;99.90;;;;;;4935450;29;20217;-75
2023/07/08 00:27:13;;;;;;;7.93;5.03;;;15.60;99.90;;;;;;4934191;29;20231;-75
2023/07/08 00:29:42;;;;;;;6.43;4.60;;;15.60;99.90;;;;;;4933556;29;20216;-74
2023/07/08 00:32:13;;;;;;;8.27;5.17;;;15.60;99.90;;;;;;4933488;29;20224;-73
2023/07/08 00:34:41;;;;;;;6.23;4.70;;;15.60;99.90;;;;;;4933655;29;20227;-76
2023/07/08 00:37:13;;;;;;;7.37;5.07;;;15.60;99.90;;;;;;4934152;29;20326;-76
2023/07/08 00:39:41;;;;;;;6.60;5.13;;;15.70;99.90;;;;;;4934000;29;20291;-76
2023/07/08 00:42:18;;;;;;;6.90;4.97;;;15.70;99.90;;;;;;4935091;29;20243;-75
2023/07/08 00:44:49;;;;;;;7.47;5.10;;;15.70;99.90;;;;;;4935521;29;20203;-76
2023/07/08 00:47:17;;;;;;;7.37;5.37;;;15.60;99.90;;;;;;4935494;29;20208;-75
2023/07/08 00:49:50;;;;;;;5.90;4.77;;;15.60;99.90;;;;;;4935494;29;20248;-73
2023/07/08 00:52:24;;;;;;;6.87;4.97;;;15.50;99.90;;;;;;4935365;29;20201;-75
2023/07/08 00:54:53;;;;;;;6.83;4.80;;;15.50;99.90;;;;;;4943727;29;20216;-77
2023/07/08 00:57:24;;;;;;;6.60;4.77;;;15.40;99.90;;;;;;4954386;28;20219;-77
2023/07/08 00:59:57;;;;;;;6.13;4.50;;;15.40;99.90;;;;;;4954432;28;20274;-75
2023/07/08 01:02:28;;;;;;;8.13;5.17;;;15.40;99.90;;;;;;4952011;29;20207;-74
2023/07/08 01:05:07;;;;;;;8.20;5.10;;;15.40;99.90;;;;;;4970002;28;20215;-74
2023/07/08 01:07:37;;;;;;;7.20;4.83;;;15.40;99.90;;;;;;4964092;28;20215;-74
2023/07/08 01:10:12;;;;;;;6.37;4.60;;;15.40;99.90;;;;;;4954713;28;20211;-74
2023/07/08 01:12:43;;;;;;;5.43;4.50;;;15.30;99.90;;;;;;4946302;28;20207;-76
2023/07/08 01:15:14;;;;;;;6.57;5.10;;;15.30;99.90;;;;;;4934924;29;20643;-77
2023/07/08 01:17:43;;;;;;;7.80;5.67;;;15.30;99.90;;;;;;4934965;29;20252;-76
2023/07/08 01:20:14;;;;;;;6.80;5.20;;;15.30;99.90;;;;;;4934979;29;20208;-75
2023/07/08 01:22:45;;;;;;;8.87;5.40;;;15.40;99.90;;;;;;4936666;29;20658;-76
2023/07/08 01:25:14;;;;;;;9.70;5.23;;;15.40;99.90;;;;;;4954417;29;20211;-77
2023/07/08 01:27:48;;;;;;;8.53;5.23;;;15.50;99.90;;;;;;4954124;29;20670;-77
2023/07/08 01:30:17;;;;;;;9.23;5.60;;;15.50;99.90;;;;;;4954404;28;20577;-76
2023/07/08 01:32:49;;;;;;;7.37;4.90;;;15.40;99.90;;;;;;4948368;28;20614;-75
2023/07/08 01:35:18;;;;;;;8.30;5.03;;;15.60;99.90;;;;;;4934932;29;20324;-75
2023/07/08 01:37:50;;;;;;;5.50;4.73;;;15.70;99.90;;;;;;4935107;29;20240;-76
2023/07/08 01:40:26;;;;;;;7.60;5.00;;;15.80;99.90;;;;;;4935195;29;20209;-76
2023/07/08 01:42:54;;;;;;;7.90;5.20;;;15.80;99.90;;;;;;4953457;29;20211;-75
2023/07/08 01:45:24;;;;;;;7.07;4.80;;;15.90;99.90;;;;;;4960388;29;20236;-76
2023/07/08 01:47:57;;;;;;;8.03;4.97;;;15.80;99.90;;;;;;4953999;28;20262;-75
2023/07/08 01:50:26;;;;;;;7.90;5.07;;;15.80;99.90;;;;;;4951419;29;20291;-77
2023/07/08 01:52:59;;;;;;;5.80;4.70;;;15.80;99.90;;;;;;4934290;29;20260;-80
2023/07/08 01:55:30;;;;;;;6.47;4.97;;;15.80;99.90;;;;;;4934508;29;20286;-78
2023/07/08 01:57:59;;;;;;;6.73;5.00;;;15.80;99.90;;;;;;4934503;29;20208;-76
2023/07/08 02:00:27;;;;;;;6.53;4.80;;;15.80;99.90;;;;;;4934824;29;20230;-78
2023/07/08 02:02:55;;;;;;;7.43;4.70;;;15.80;99.90;;;;;;4959766;28;20219;-75
2023/07/08 02:05:24;;;;;;;7.50;5.23;;;15.80;99.90;;;;;;4973330;28;20302;-74
2023/07/08 02:07:52;;;;;;;7.70;5.00;;;15.80;99.90;;;;;;4935764;28;20220;-75
2023/07/08 02:10:21;;;;;;;7.40;5.17;;;15.70;99.90;;;;;;4937210;29;20212;-78
2023/07/08 02:12:49;;;;;;;7.30;5.20;;;15.70;99.90;;;;;;4937475;29;20255;-76
2023/07/08 02:15:18;;;;;;;5.73;4.57;;;15.60;99.90;;;;;;4938030;29;20212;-74
2023/07/08 02:17:46;;;;;;;6.20;4.63;;;15.60;99.90;;;;;;4937659;29;20244;-76
2023/07/08 02:20:14;;;;;;;8.07;5.23;;;15.50;99.90;;;;;;4938115;29;20294;-77
2023/07/08 02:22:42;;;;;;;6.40;4.90;;;15.50;99.90;;;;;;4937763;29;20317;-77
2023/07/08 02:25:10;;;;;;;7.47;4.90;;;15.50;99.90;;;;;;4937461;29;20247;-76
2023/07/08 02:27:40;;;;;;;6.40;5.00;;;15.40;99.90;;;;;;4937943;29;20212;-74
2023/07/08 02:30:09;;;;;;;5.77;4.67;;;15.40;99.90;;;;;;4937524;29;20641;-76
2023/07/08 02:32:38;;;;;;;6.70;5.07;;;15.30;99.90;;;;;;4937530;29;20687;-79
2023/07/08 02:35:07;;;;;;;7.80;5.13;;;15.30;99.90;;;;;;4937598;29;20219;-75
2023/07/08 02:37:36;;;;;;;7.43;4.97;;;15.30;99.90;;;;;;4937879;29;20637;-73
2023/07/08 02:40:04;;;;;;;7.47;5.10;;;15.30;99.90;;;;;;4937640;29;20219;-75
2023/07/08 02:42:32;;;;;;;6.77;4.90;;;15.30;99.90;;;;;;4937614;29;20271;-76
2023/07/08 02:45:02;;;;;;;9.93;5.20;;;15.20;99.90;;;;;;4937911;29;20287;-77
2023/07/08 02:47:30;;;;;;;9.47;5.00;;;15.20;99.90;;;;;;4937430;29;20216;-75
2023/07/08 02:49:58;;;;;;;6.37;4.90;;;15.20;99.90;;;;;;4937746;29;20691;-74
2023/07/08 02:52:26;;;;;;;7.77;5.40;;;15.20;99.90;;;;;;4937444;29;20271;-74
2023/07/08 02:54:54;;;;;;;6.87;4.93;;;15.20;99.90;;;;;;4937162;29;20271;-77
2023/07/08 02:57:22;;;;;;;8.77;5.27;;;15.10;99.90;;;;;;4937132;29;20738;-74
2023/07/08 02:59:50;;;;;;;8.27;5.50;;;15.10;99.90;;;;;;4937385;29;20291;-77
2023/07/08 03:02:20;;;;;;;7.13;4.90;;;15.10;99.90;;;;;;4974831;28;20246;-73
2023/07/08 03:04:49;;;;;;;7.50;4.93;;;15.10;99.90;;;;;;4976136;28;20303;-75
2023/07/08 03:07:18;;;;;;;7.00;5.20;;;15.10;99.90;;;;;;4956288;28;20212;-77
2023/07/08 03:09:46;;;;;;;7.90;5.00;;;15.10;99.90;;;;;;4937472;29;20252;-75
2023/07/08 03:12:14;;;;;;;6.07;4.73;;;15.00;99.90;;;;;;4936930;29;20299;-77
2023/07/08 03:14:43;;;;;;;7.33;5.40;;;15.00;99.90;;;;;;4937024;29;20291;-76
2023/07/08 03:17:11;;;;;;;8.83;5.20;;;15.00;99.90;;;;;;4936785;29;20675;-74
2023/07/08 03:19:41;;;;;;;8.00;5.37;;;15.00;99.90;;;;;;4937058;29;20222;-74
2023/07/08 03:22:09;;;;;;;6.50;4.93;;;15.00;99.90;;;;;;4936187;29;20216;-75
2023/07/08 03:24:37;;;;;;;7.60;5.70;;;15.00;99.90;;;;;;4937241;29;20559;-77
2023/07/08 03:27:07;;;;;;;6.60;5.10;;;15.00;99.90;;;;;;4936759;29;20613;-76
2023/07/08 03:29:35;;;;;;;6.73;5.17;;;14.90;99.90;;;;;;4936622;29;20233;-75
2023/07/08 03:32:04;;;;;;;7.47;5.30;;;14.90;99.90;;;;;;4936523;29;20212;-76
2023/07/08 03:34:32;;;;;;;7.20;5.30;;;14.90;99.90;;;;;;4936952;29;20216;-75
2023/07/08 03:37:01;;;;;;;6.73;5.30;;;14.90;99.90;;;;;;4936474;29;20731;-74
2023/07/08 03:39:31;;;;;;;6.80;4.80;;;14.90;99.90;;;;;;4936372;29;20205;-77
2023/07/08 03:41:59;;;;;;;8.23;5.37;;;14.90;99.90;;;;;;4936336;29;20745;-74
2023/07/08 03:44:27;;;;;;;6.90;5.37;;;15.00;99.90;;;;;;4939741;29;20280;-75
2023/07/08 03:46:55;;;;;;;8.53;5.37;;;15.00;99.90;;;;;;4939606;29;20574;-77
2023/07/08 03:49:24;;;;;;;6.30;5.03;;;15.00;99.90;;;;;;4936241;29;20228;-77
2023/07/08 03:51:54;;;;;;;7.70;4.90;;;15.00;99.90;;;;;;4935960;29;20212;-76
2023/07/08 03:54:25;;;;;;;8.00;5.17;;;15.10;99.90;;;;;;4935367;29;20263;-76
2023/07/08 03:56:54;;;;;;;9.43;5.50;;;15.10;99.90;;;;;;4936244;29;20275;-75
2023/07/08 03:59:22;;;;;;;6.90;5.47;;;15.10;99.90;;;;;;4949198;28;20222;-79
2023/07/08 04:01:50;;;;;;;7.30;5.57;;;15.20;99.90;;;;;;4973967;28;20246;-78
2023/07/08 04:04:18;;;;;;;7.50;5.57;;;15.20;99.90;;;;;;4955299;28;20215;-76
2023/07/08 04:06:46;;;;;;;8.17;5.17;;;15.20;99.90;;;;;;4936023;29;20243;-77
2023/07/08 04:09:14;;;;;;;7.47;5.77;;;15.30;99.90;;;;;;4935754;29;20228;-77
2023/07/08 04:11:44;;;;;;;8.80;5.57;;;15.40;99.90;;;;;;4936034;29;20310;-76
2023/07/08 04:14:12;;;;;;;8.57;5.50;;;15.50;99.90;;;;;;4935097;29;20276;-81
2023/07/08 04:16:48;;;;;;;9.77;5.27;;;15.60;99.90;;;;;;4935874;29;20212;-76
2023/07/08 04:19:16;;;;;;;7.37;5.03;;;15.60;99.90;;;;;;4934854;29;20671;-79
2023/07/08 04:21:46;;;;;;;6.83;5.30;;;15.70;99.90;;;;;;4935352;29;20242;-76
2023/07/08 04:24:16;;;;;;;7.43;5.20;;;15.80;99.90;;;;;;4934973;28;20290;-79
2023/07/08 04:26:48;;;;;;;6.20;4.83;;;15.80;99.90;;;;;;4935601;29;20239;-76
2023/07/08 04:29:18;;;;;;;8.87;5.37;;;15.90;99.90;;;;;;4935091;29;20211;-74
2023/07/08 04:31:46;;;;;;;8.83;5.57;;;16.10;99.90;;;;;;4935121;29;20247;-76
2023/07/08 04:34:15;;;;;;;8.27;5.90;;;16.10;99.90;;;;;;4934617;29;20216;-78
2023/07/08 04:36:43;;;;;;;6.90;5.60;;;16.30;99.90;;;;;;4935460;29;20274;-73
2023/07/08 04:39:12;;;;;;;7.63;5.70;;;16.30;99.90;;;;;;4935554;29;20567;-75
2023/07/08 04:41:43;;;;;;;8.90;5.40;;;16.40;99.90;;;;;;4934838;29;20204;-75
2023/07/08 04:44:14;;;;;;;7.53;5.40;;;16.50;99.90;;;;;;4935252;29;20216;-77
2023/07/08 04:46:47;;;;;;;9.43;5.20;;;16.60;99.90;;;;;;4935172;29;20215;-77
2023/07/08 04:49:16;;;;;;;7.47;5.27;;;16.70;99.90;;;;;;4934916;29;20293;-78
